Huvudsida
METAR-TAF:

METAR-TAF

Flygplatser :

Ørlands, Norge

latitud: 63-42N, longitud: 009-36E, höjd: 0 m

Aktuellt väderrapport

Denna rapport gjordes för 36 minuter sedan, klockan 17:50 UTC
Vind 7 kt från ost
Temperatur 10°C
Fuktighet 57%
Tryck 1007 hPa
Sikt 10 km eller mer
Inga moln under 1 500 m eller inga cumulonimbus

METAR: ENOL 221750Z 09007KT CAVOK 10/02 Q1007 NOSIG

Tid: 20:26 (18:26 UTC)

Väderprognos

Prognos gäller från 22 kl. 18 UTC till 23 kl. 18 UTC
Vind 12 kt från ost/sydost
Sikt 10 km eller mer
Inga moln under 1 500 m eller inga cumulonimbus
Temporärt
från 23 kl. 10 UTC till 23 kl. 18 UTC
Vind 7 kt varierande vindriktning
Sikt: 4000 m
Brutna moln på en höjd av 1000 ft
regn, fuktdis

TAF: ENOL 2218/2318 12012KT CAVOK TEMPO 2310/2318 VRB07KT 4000 RA BR BKN010

Aktuella väderrapporter och prognoser från 4000 flygplatser (METAR- och TAF-rapporter).

De tillgängliga stationerna syns som gula och röda prickar på kartan.

För musen över prickarna för att se namnen på stationerna.

Klicka sedan för att få väderrapporter och prognoser.

För att ändra kartan: Klicka på de gröna knapparna med ett svart kors på för att zooma in; den gröna knappen med ett streck på för att zooma ut; eller på de gröna pilarna för angränsande kartor.


METAR-TAF: